Time;durP1;ratioP1;P1;durP2;ratioP2;P2;SDS_P1;SDS_P2;PMS_P1;PMS_P2;Temp;Humidity;BMP_temperature;BMP_pressure;BME280_temperature;BME280_humidity;BME280_pressure;Samples;Min_cycle;Max_cycle;Signal;HPM_P1;HPM_P2
2021/01/04 00:01:07;;;;;;;23.23;17.10;;;-1.00;98.00;;;;;;5031159;28;20105;-68
2021/01/04 00:03:57;;;;;;;20.73;16.17;;;-1.00;98.00;;;;;;5046876;28;20120;-67
2021/01/04 00:06:26;;;;;;;24.15;16.38;;;-0.90;98.00;;;;;;5031054;28;20334;-68
2021/01/04 00:09:18;;;;;;;22.45;15.90;;;-0.90;98.00;;;;;;5032552;28;20060;-67
2021/01/04 00:12:14;;;;;;;22.60;16.15;;;-0.90;98.00;;;;;;5026705;28;20136;-66
2021/01/04 00:15:02;;;;;;;25.02;16.08;;;-1.00;98.00;;;;;;5030233;28;20014;-66
2021/01/04 00:17:44;;;;;;;24.73;16.42;;;-1.00;98.00;;;;;;5031779;28;20029;-68
2021/01/04 00:20:48;;;;;;;22.95;15.73;;;-1.00;98.00;;;;;;5030995;28;20048;-68
2021/01/04 00:23:51;;;;;;;24.92;15.40;;;-1.00;98.00;;;;;;5028907;28;20029;-69
2021/01/04 00:26:36;;;;;;;22.92;16.58;;;-1.00;98.00;;;;;;5029741;28;20034;-68
2021/01/04 00:29:02;;;;;;;25.20;16.38;;;-1.00;98.00;;;;;;5032546;28;20025;-68
2021/01/04 00:31:35;;;;;;;23.83;15.63;;;-0.90;98.00;;;;;;5032596;28;20042;-68
2021/01/04 00:34:33;;;;;;;20.80;14.93;;;-0.90;98.00;;;;;;5032342;28;20030;-68
2021/01/04 00:37:26;;;;;;;22.92;15.10;;;-0.90;98.00;;;;;;5030588;28;20049;-68
2021/01/04 00:40:22;;;;;;;20.88;14.77;;;-0.90;98.00;;;;;;5031875;28;20103;-68
2021/01/04 00:42:50;;;;;;;23.20;15.48;;;-0.90;98.00;;;;;;5031427;28;20101;-69
2021/01/04 00:45:27;;;;;;;23.83;15.00;;;-0.90;98.00;;;;;;5032151;28;20033;-68
2021/01/04 00:48:06;;;;;;;21.52;14.65;;;-0.90;98.00;;;;;;5031176;28;20040;-69
2021/01/04 00:50:52;;;;;;;21.75;15.15;;;-0.90;98.00;;;;;;5032912;28;20334;-68
2021/01/04 00:53:28;;;;;;;22.30;15.50;;;-0.90;98.00;;;;;;5023664;28;20060;-68
2021/01/04 00:56:06;;;;;;;24.75;15.23;;;-0.90;98.00;;;;;;5031912;28;20212;-68
2021/01/04 00:59:08;;;;;;;24.42;15.02;;;-0.90;98.00;;;;;;5030246;28;20061;-68
2021/01/04 01:01:43;;;;;;;19.67;14.45;;;-0.90;98.00;;;;;;5034777;28;20034;-69
2021/01/04 01:04:28;;;;;;;23.38;15.80;;;-0.90;98.00;;;;;;5036317;28;20037;-69
2021/01/04 01:07:20;;;;;;;23.88;16.35;;;-0.90;98.00;;;;;;5033634;28;20371;-69
2021/01/04 01:09:50;;;;;;;22.75;15.55;;;-0.90;98.00;;;;;;5036192;28;20033;-69
2021/01/04 01:12:18;;;;;;;26.10;17.60;;;-0.90;98.00;;;;;;5035173;28;20101;-69
2021/01/04 01:15:12;;;;;;;30.05;17.77;;;-0.90;98.00;;;;;;5034845;28;20024;-69
2021/01/04 01:18:00;;;;;;;24.98;16.92;;;-0.90;98.00;;;;;;5034421;28;20030;-67
2021/01/04 01:20:27;;;;;;;34.42;19.13;;;-0.90;98.00;;;;;;5036057;28;20033;-68
2021/01/04 01:22:54;;;;;;;25.73;17.80;;;-0.80;98.00;;;;;;5034365;28;20353;-69
2021/01/04 01:25:23;;;;;;;24.83;17.35;;;-0.80;98.00;;;;;;5034156;28;20033;-67
2021/01/04 01:28:00;;;;;;;25.05;16.70;;;-0.80;98.00;;;;;;5022707;28;20033;-68
2021/01/04 01:31:03;;;;;;;27.92;18.73;;;-0.80;98.00;;;;;;5031889;28;20022;-68
2021/01/04 01:34:06;;;;;;;28.63;17.80;;;-0.80;98.00;;;;;;5033771;28;20022;-68
2021/01/04 01:36:43;;;;;;;25.13;16.58;;;-0.80;98.00;;;;;;5035038;28;20013;-68
2021/01/04 01:39:33;;;;;;;28.77;18.48;;;-0.80;98.00;;;;;;5035428;28;20026;-69
2021/01/04 01:42:23;;;;;;;32.10;19.38;;;-0.80;98.00;;;;;;5033662;28;20045;-69
2021/01/04 01:45:21;;;;;;;32.53;18.73;;;-0.80;98.00;;;;;;5035885;28;20493;-67
2021/01/04 01:48:13;;;;;;;25.77;17.67;;;-0.80;98.00;;;;;;5030659;28;20521;-68
2021/01/04 01:50:45;;;;;;;29.23;19.25;;;-0.70;98.00;;;;;;5033735;28;20053;-68
2021/01/04 01:53:29;;;;;;;28.38;19.02;;;-0.80;98.00;;;;;;5033770;28;20021;-69
2021/01/04 01:56:21;;;;;;;28.63;19.05;;;-0.80;98.00;;;;;;5033153;28;20024;-69
2021/01/04 01:58:59;;;;;;;29.90;20.05;;;-0.70;98.00;;;;;;5033551;28;20314;-67
2021/01/04 02:01:49;;;;;;;27.98;18.98;;;-0.70;98.00;;;;;;5035105;28;20075;-68
2021/01/04 02:04:38;;;;;;;28.98;18.73;;;-0.80;98.00;;;;;;5029080;28;20116;-68
2021/01/04 02:07:07;;;;;;;28.38;18.15;;;-0.80;98.00;;;;;;5034209;28;20029;-67
2021/01/04 02:09:58;;;;;;;29.10;18.50;;;-0.80;98.00;;;;;;5033924;28;20021;-68
2021/01/04 02:12:36;;;;;;;26.23;18.05;;;-0.80;98.00;;;;;;5034633;28;20022;-67
2021/01/04 02:15:14;;;;;;;26.98;18.83;;;-0.70;98.00;;;;;;5015877;28;20639;-69
2021/01/04 02:18:24;;;;;;;24.33;17.13;;;-0.70;98.00;;;;;;5022997;28;20030;-69
2021/01/04 02:21:17;;;;;;;25.83;17.95;;;-0.70;98.00;;;;;;5019221;28;20029;-69
2021/01/04 02:23:43;;;;;;;24.40;18.13;;;-0.70;98.00;;;;;;5034397;28;20496;-69
2021/01/04 02:26:23;;;;;;;27.63;18.67;;;-0.70;98.00;;;;;;5033424;28;20065;-68
2021/01/04 02:29:02;;;;;;;27.90;18.80;;;-0.70;98.00;;;;;;5034227;28;20029;-69
2021/01/04 02:31:30;;;;;;;27.38;19.83;;;-0.70;98.00;;;;;;5035095;28;20030;-69
2021/01/04 02:33:57;;;;;;;27.15;19.25;;;-0.70;98.00;;;;;;5033406;28;20036;-68
2021/01/04 02:36:27;;;;;;;28.17;19.05;;;-0.70;98.00;;;;;;5032381;28;20441;-67
2021/01/04 02:39:18;;;;;;;44.05;21.85;;;-0.70;98.00;;;;;;5028989;28;20080;-67
2021/01/04 02:42:10;;;;;;;32.08;21.65;;;-0.70;98.00;;;;;;5033124;28;20164;-67
2021/01/04 02:44:38;;;;;;;29.05;20.13;;;-0.70;98.00;;;;;;5034869;28;20033;-69
2021/01/04 02:47:27;;;;;;;32.67;20.88;;;-0.70;98.00;;;;;;5033965;28;20430;-69
2021/01/04 02:50:08;;;;;;;35.90;21.25;;;-0.70;98.00;;;;;;5034566;28;20091;-68
2021/01/04 02:52:56;;;;;;;34.17;21.33;;;-0.70;98.00;;;;;;5034301;28;20501;-68
2021/01/04 02:55:45;;;;;;;31.90;21.90;;;-0.70;98.00;;;;;;5033020;28;20029;-69
2021/01/04 02:58:20;;;;;;;32.95;21.42;;;-0.70;98.00;;;;;;5019756;28;20486;-67
2021/01/04 03:00:55;;;;;;;32.35;22.50;;;-0.70;98.00;;;;;;5034491;28;20025;-67
2021/01/04 03:03:26;;;;;;;36.47;23.08;;;-0.70;98.00;;;;;;5034175;28;20080;-66
2021/01/04 03:05:52;;;;;;;33.63;21.75;;;-0.60;98.00;;;;;;5028378;28;20117;-67
2021/01/04 03:08:18;;;;;;;34.90;23.30;;;-0.50;98.00;;;;;;5035212;28;20104;-67
2021/01/04 03:10:44;;;;;;;33.58;22.10;;;-0.50;98.00;;;;;;5036672;28;20034;-68
2021/01/04 03:13:56;;;;;;;36.25;23.27;;;-0.60;98.00;;;;;;5053581;28;20029;-69
2021/01/04 03:16:40;;;;;;;32.17;22.50;;;-0.60;98.00;;;;;;5042310;28;20068;-69
2021/01/04 03:19:12;;;;;;;29.95;21.45;;;-0.60;98.00;;;;;;5038101;28;20311;-69
2021/01/04 03:21:40;;;;;;;36.55;23.42;;;-0.60;98.00;;;;;;5038031;28;20041;-69
2021/01/04 03:24:16;;;;;;;34.28;22.33;;;-0.60;98.00;;;;;;5037821;28;20033;-69
2021/01/04 03:26:48;;;;;;;31.65;22.60;;;-0.60;98.00;;;;;;5034977;28;20033;-68
2021/01/04 03:29:14;;;;;;;35.85;23.77;;;-0.60;98.00;;;;;;5037120;28;20029;-69
2021/01/04 03:31:41;;;;;;;37.67;23.92;;;-0.60;98.00;;;;;;5035974;28;20032;-69
2021/01/04 03:34:07;;;;;;;36.13;24.65;;;-0.60;98.00;;;;;;5037603;28;20029;-69
2021/01/04 03:36:32;;;;;;;38.78;24.38;;;-0.60;98.00;;;;;;5036916;28;20076;-68
2021/01/04 03:38:58;;;;;;;39.72;25.52;;;-0.60;98.00;;;;;;5037485;28;20018;-68
2021/01/04 03:41:23;;;;;;;34.15;23.02;;;-0.60;98.00;;;;;;5036065;28;20033;-68
2021/01/04 03:43:52;;;;;;;38.72;22.75;;;-0.60;98.00;;;;;;5037396;28;20038;-67
2021/01/04 03:46:17;;;;;;;36.58;22.90;;;-0.40;98.00;;;;;;5036712;28;20033;-68
2021/01/04 03:48:43;;;;;;;36.97;23.20;;;-0.40;98.00;;;;;;5035920;28;20152;-69
2021/01/04 03:51:09;;;;;;;34.83;22.80;;;-0.50;98.00;;;;;;5036775;28;20050;-69
2021/01/04 03:53:35;;;;;;;36.60;22.48;;;-0.50;98.00;;;;;;5037686;28;20036;-69
2021/01/04 03:56:01;;;;;;;37.05;23.25;;;-0.50;98.00;;;;;;5035144;28;20021;-68
2021/01/04 03:58:26;;;;;;;34.60;22.75;;;-0.50;98.00;;;;;;5037625;28;20060;-68
2021/01/04 04:00:55;;;;;;;33.20;21.73;;;-0.60;98.00;;;;;;5037606;28;20029;-69
2021/01/04 04:03:21;;;;;;;35.83;23.42;;;-0.50;98.00;;;;;;5037100;28;20143;-69
2021/01/04 04:05:46;;;;;;;36.58;21.73;;;-0.60;98.00;;;;;;5036480;28;20021;-68
2021/01/04 04:08:12;;;;;;;32.08;21.33;;;-0.60;98.00;;;;;;5037032;28;20037;-69
2021/01/04 04:10:37;;;;;;;29.80;20.52;;;-0.60;98.00;;;;;;5034711;28;20402;-68
2021/01/04 04:13:03;;;;;;;32.92;21.92;;;-0.60;98.00;;;;;;5036910;28;20030;-67
2021/01/04 04:15:29;;;;;;;34.47;22.27;;;-0.60;98.00;;;;;;5035695;28;20021;-69
2021/01/04 04:17:54;;;;;;;33.28;22.27;;;-0.60;98.00;;;;;;5036621;28;20096;-68
2021/01/04 04:20:23;;;;;;;31.92;22.00;;;-0.60;98.00;;;;;;5036366;28;20029;-69
2021/01/04 04:22:50;;;;;;;34.92;22.70;;;-0.60;98.00;;;;;;5036411;28;20700;-68
2021/01/04 04:25:17;;;;;;;36.83;23.27;;;-0.60;98.00;;;;;;5020536;28;20618;-69
2021/01/04 04:27:43;;;;;;;33.95;23.27;;;-0.60;98.00;;;;;;5035849;28;20026;-67
2021/01/04 04:30:13;;;;;;;34.72;22.67;;;-0.60;98.00;;;;;;5036726;28;20029;-69
2021/01/04 04:32:41;;;;;;;37.85;23.88;;;-0.60;98.00;;;;;;5035422;28;20349;-67
2021/01/04 04:35:09;;;;;;;34.80;23.52;;;-0.60;98.00;;;;;;5036023;28;20022;-68
2021/01/04 04:37:34;;;;;;;35.63;22.85;;;-0.60;98.00;;;;;;5036379;28;20022;-67
2021/01/04 04:40:00;;;;;;;34.75;23.17;;;-0.60;98.00;;;;;;5034033;28;20393;-67
2021/01/04 04:42:26;;;;;;;35.40;22.88;;;-0.60;98.00;;;;;;5035273;28;20361;-68
2021/01/04 04:45:01;;;;;;;35.63;23.75;;;-0.60;98.00;;;;;;5036286;28;20026;-67
2021/01/04 04:47:50;;;;;;;39.25;23.33;;;-0.60;98.00;;;;;;5035891;28;20047;-68
2021/01/04 04:50:34;;;;;;;35.30;22.55;;;-0.60;98.00;;;;;;5035039;28;20056;-69
2021/01/04 04:53:19;;;;;;;41.90;23.30;;;-0.60;98.00;;;;;;5034428;28;20357;-68
2021/01/04 04:55:48;;;;;;;34.70;22.80;;;-0.50;98.00;;;;;;5034886;28;20026;-68
2021/01/04 04:58:30;;;;;;;46.67;24.10;;;-0.60;98.00;;;;;;5036339;28;20426;-68
2021/01/04 05:00:59;;;;;;;37.38;23.65;;;-0.60;98.00;;;;;;5036393;28;20124;-69
2021/01/04 05:04:02;;;;;;;35.90;22.75;;;-0.50;98.00;;;;;;5031862;28;20097;-68
2021/01/04 05:06:49;;;;;;;38.60;22.92;;;-0.50;98.00;;;;;;5036143;28;20056;-68
2021/01/04 05:09:15;;;;;;;38.67;24.17;;;-0.50;98.00;;;;;;5036093;28;20104;-67
2021/01/04 05:11:43;;;;;;;36.53;22.58;;;-0.50;98.00;;;;;;5033518;28;20136;-69
2021/01/04 05:14:27;;;;;;;46.63;23.92;;;-0.60;98.00;;;;;;5031240;28;20417;-69
2021/01/04 05:17:17;;;;;;;32.97;20.88;;;-0.50;98.00;;;;;;5031922;28;20022;-69
2021/01/04 05:19:59;;;;;;;36.80;21.75;;;-0.50;98.00;;;;;;5035763;28;20314;-68
2021/01/04 05:22:49;;;;;;;31.02;21.25;;;-0.50;98.00;;;;;;5035336;28;20029;-67
2021/01/04 05:25:40;;;;;;;31.42;20.67;;;-0.50;98.00;;;;;;5033550;28;20707;-67
2021/01/04 05:28:43;;;;;;;34.50;22.70;;;-0.50;98.00;;;;;;5036039;28;20037;-69
2021/01/04 05:31:59;;;;;;;36.58;23.05;;;-0.50;98.00;;;;;;5032020;28;20033;-68
2021/01/04 05:34:42;;;;;;;33.72;21.70;;;-0.50;98.00;;;;;;5000756;28;20026;-69
2021/01/04 05:37:17;;;;;;;39.40;23.20;;;-0.50;98.00;;;;;;5022901;28;20315;-66
2021/01/04 05:40:07;;;;;;;35.78;22.77;;;-0.50;98.00;;;;;;5035309;28;20295;-68
2021/01/04 05:43:12;;;;;;;35.88;23.27;;;-0.50;98.00;;;;;;5035029;28;20049;-67
2021/01/04 05:45:43;;;;;;;36.13;23.45;;;-0.60;98.00;;;;;;5027010;28;20021;-68
2021/01/04 05:48:22;;;;;;;40.83;25.25;;;-0.60;98.00;;;;;;5026846;28;20029;-69
2021/01/04 05:51:05;;;;;;;34.35;23.23;;;-0.60;98.00;;;;;;5034240;28;20045;-69
2021/01/04 05:53:31;;;;;;;42.60;23.73;;;-0.60;98.00;;;;;;5033101;28;20029;-67
2021/01/04 05:56:00;;;;;;;40.17;24.92;;;-0.60;98.00;;;;;;5034210;28;20268;-68
2021/01/04 05:58:31;;;;;;;37.25;23.25;;;-0.50;98.00;;;;;;5029903;28;20091;-67
2021/01/04 06:01:32;;;;;;;38.75;23.63;;;-0.60;98.00;;;;;;5032595;28;20033;-67
2021/01/04 06:04:00;;;;;;;38.20;25.05;;;-0.50;98.00;;;;;;5014410;28;20076;-69
2021/01/04 06:06:37;;;;;;;39.70;24.98;;;-0.50;98.00;;;;;;5032004;28;20025;-68
2021/01/04 06:09:06;;;;;;;40.25;25.30;;;-0.50;98.00;;;;;;5034574;28;20037;-69
2021/01/04 06:11:32;;;;;;;41.42;25.55;;;-0.50;98.00;;;;;;5033447;28;20052;-69
2021/01/04 06:14:05;;;;;;;39.65;24.65;;;-0.50;98.00;;;;;;5033980;28;20136;-69
2021/01/04 06:16:32;;;;;;;42.97;25.20;;;-0.50;98.00;;;;;;5033424;28;20022;-69
2021/01/04 06:19:09;;;;;;;38.30;24.88;;;-0.50;98.00;;;;;;5035034;28;20013;-68
2021/01/04 06:21:57;;;;;;;39.47;24.38;;;-0.50;98.00;;;;;;5034532;28;20040;-69
2021/01/04 06:24:27;;;;;;;40.20;24.50;;;-0.60;98.00;;;;;;5034978;28;20092;-69
2021/01/04 06:26:58;;;;;;;39.22;25.13;;;-0.60;98.00;;;;;;5032250;28;20026;-68
2021/01/04 06:29:43;;;;;;;43.22;24.52;;;-0.60;98.00;;;;;;5034108;28;20029;-68
2021/01/04 06:32:19;;;;;;;41.85;25.45;;;-0.60;98.00;;;;;;5035773;28;20033;-68
2021/01/04 06:34:49;;;;;;;38.20;23.30;;;-0.70;98.00;;;;;;5036049;28;20022;-69
2021/01/04 06:37:23;;;;;;;41.22;24.98;;;-0.60;98.00;;;;;;5020289;28;20022;-69
2021/01/04 06:40:20;;;;;;;37.78;24.15;;;-0.60;98.00;;;;;;5034003;28;20022;-68
2021/01/04 06:42:46;;;;;;;39.42;24.48;;;-0.60;98.00;;;;;;5034415;28;20041;-67
2021/01/04 06:45:15;;;;;;;43.22;25.02;;;-0.70;98.00;;;;;;5038038;28;20026;-69
2021/01/04 06:48:23;;;;;;;34.42;22.90;;;-0.70;98.00;;;;;;5033628;28;20030;-68
2021/01/04 06:51:08;;;;;;;44.75;29.20;;;-0.60;98.00;;;;;;5027491;28;20334;-69
2021/01/04 06:53:42;;;;;;;38.35;25.83;;;-0.60;98.00;;;;;;5038800;28;20317;-69
2021/01/04 06:56:33;;;;;;;47.50;29.80;;;-0.70;98.00;;;;;;5035348;28;20030;-69
2021/01/04 06:59:32;;;;;;;41.33;27.98;;;-0.60;98.00;;;;;;5031640;28;20025;-69
2021/01/04 07:02:13;;;;;;;44.20;26.63;;;-0.60;98.00;;;;;;5035698;28;20057;-68
2021/01/04 07:05:26;;;;;;;38.10;24.08;;;-0.70;98.00;;;;;;5038541;28;20311;-68
2021/01/04 07:08:23;;;;;;;32.78;21.98;;;-0.70;98.00;;;;;;5036469;28;20026;-69
2021/01/04 07:11:01;;;;;;;34.40;22.10;;;-0.70;98.00;;;;;;5032558;28;20030;-68
2021/01/04 07:13:59;;;;;;;31.88;21.58;;;-0.70;98.00;;;;;;5034227;28;20029;-69
2021/01/04 07:16:52;;;;;;;34.92;21.77;;;-0.70;98.00;;;;;;5038071;28;20120;-69
2021/01/04 07:19:39;;;;;;;34.20;22.08;;;-0.70;98.00;;;;;;5035218;28;20033;-68
2021/01/04 07:22:39;;;;;;;33.50;21.13;;;-0.70;98.00;;;;;;5032679;28;20029;-67
2021/01/04 07:25:15;;;;;;;38.55;20.15;;;-0.60;98.00;;;;;;5035437;28;20442;-67
2021/01/04 07:27:49;;;;;;;33.85;20.83;;;-0.60;98.00;;;;;;5038199;28;20369;-67
2021/01/04 07:30:24;;;;;;;;;;;-0.60;98.00;;;;;;5031187;28;20369;-69
2021/01/04 07:32:55;;;;;;;31.42;20.00;;;-0.60;98.00;;;;;;5022526;28;20039;-68
2021/01/04 07:35:32;;;;;;;37.30;20.90;;;-0.60;98.00;;;;;;5036289;28;20060;-67
2021/01/04 07:38:36;;;;;;;37.88;20.27;;;-0.60;98.00;;;;;;5037326;28;20025;-68
2021/01/04 07:41:09;;;;;;;34.53;22.40;;;-0.50;98.00;;;;;;5032436;28;20033;-67
2021/01/04 07:44:23;;;;;;;32.45;20.40;;;-0.50;98.00;;;;;;5037700;28;20092;-67
2021/01/04 07:46:59;;;;;;;30.77;20.40;;;-0.50;98.00;;;;;;5036676;28;20109;-68
2021/01/04 07:49:43;;;;;;;37.65;20.05;;;-0.40;98.00;;;;;;5036839;28;20283;-68
2021/01/04 07:52:30;;;;;;;31.73;20.02;;;-0.40;98.00;;;;;;5031756;28;20042;-68
2021/01/04 07:55:18;;;;;;;29.80;18.90;;;-0.40;98.00;;;;;;5034627;28;20037;-68
2021/01/04 07:58:17;;;;;;;29.77;18.17;;;-0.30;98.00;;;;;;5037365;28;20319;-69
2021/01/04 08:01:20;;;;;;;30.65;19.52;;;-0.30;98.00;;;;;;5037347;28;20051;-69
2021/01/04 08:04:07;;;;;;;28.90;17.80;;;-0.30;98.00;;;;;;5036318;28;20021;-68
2021/01/04 08:07:12;;;;;;;26.33;17.95;;;-0.20;98.00;;;;;;5037275;28;20037;-68
2021/01/04 08:09:59;;;;;;;33.03;21.88;;;-0.10;98.00;;;;;;5023455;28;20026;-67
2021/01/04 08:12:58;;;;;;;32.35;20.35;;;-0.20;98.00;;;;;;5034363;28;20017;-69
2021/01/04 08:15:41;;;;;;;35.70;21.83;;;-0.20;98.00;;;;;;5035522;28;20103;-69
2021/01/04 08:18:15;;;;;;;39.58;22.00;;;-0.20;98.00;;;;;;5037177;28;20029;-69
2021/01/04 08:21:08;;;;;;;41.58;22.88;;;-0.10;98.00;;;;;;5037351;28;20033;-69
2021/01/04 08:23:51;;;;;;;35.30;22.55;;;-0.10;98.00;;;;;;5029500;28;20029;-67
2021/01/04 08:26:41;;;;;;;33.45;21.75;;;-0.20;98.00;;;;;;5036025;28;20456;-68
2021/01/04 08:29:36;;;;;;;36.15;21.77;;;-0.10;98.00;;;;;;5036812;28;20041;-68
2021/01/04 08:32:24;;;;;;;38.88;22.80;;;-0.10;98.00;;;;;;5036222;28;20047;-68
2021/01/04 08:34:50;;;;;;;33.63;21.05;;;0.00;98.00;;;;;;5037020;28;20412;-69
2021/01/04 08:37:31;;;;;;;34.08;20.63;;;0.00;98.00;;;;;;5036834;28;20032;-69
2021/01/04 08:40:18;;;;;;;32.65;20.67;;;0.20;98.00;;;;;;5033227;28;20034;-67
2021/01/04 08:42:46;;;;;;;31.70;20.35;;;0.20;98.00;;;;;;5035637;28;20029;-67
2021/01/04 08:45:14;;;;;;;36.33;19.67;;;0.30;98.00;;;;;;5036306;28;20040;-69
2021/01/04 08:47:51;;;;;;;30.42;20.52;;;0.30;98.00;;;;;;5036610;28;20329;-67
2021/01/04 08:50:31;;;;;;;37.90;18.38;;;0.40;98.00;;;;;;5036049;28;20049;-67
2021/01/04 08:53:28;;;;;;;35.00;20.95;;;0.40;98.00;;;;;;5034759;28;20299;-68
2021/01/04 08:56:13;;;;;;;36.83;22.05;;;0.60;98.00;;;;;;5034716;28;20030;-67
2021/01/04 08:58:44;;;;;;;27.05;15.57;;;0.70;98.00;;;;;;5036618;28;20030;-69
2021/01/04 09:01:12;;;;;;;26.85;16.00;;;0.80;97.50;;;;;;5034451;28;20022;-70
2021/01/04 09:03:39;;;;;;;25.67;15.30;;;0.80;96.20;;;;;;5026929;28;20034;-68
2021/01/04 09:06:34;;;;;;;23.05;13.77;;;0.80;95.10;;;;;;5030821;28;20452;-68
2021/01/04 09:09:22;;;;;;;20.13;14.30;;;0.80;95.30;;;;;;5035490;28;20112;-68
2021/01/04 09:12:00;;;;;;;19.10;12.38;;;0.80;93.30;;;;;;5034961;28;20366;-69
2021/01/04 09:14:38;;;;;;;16.55;10.77;;;0.70;94.10;;;;;;5035411;28;20026;-69
2021/01/04 09:17:22;;;;;;;18.88;11.95;;;0.70;94.00;;;;;;5035709;28;20072;-69
2021/01/04 09:19:59;;;;;;;16.45;10.05;;;0.80;93.10;;;;;;5036139;28;20052;-68
2021/01/04 09:22:25;;;;;;;19.88;12.35;;;0.70;93.00;;;;;;5017242;28;20330;-69
2021/01/04 09:24:52;;;;;;;18.27;12.13;;;0.70;93.30;;;;;;5034281;28;20029;-69
2021/01/04 09:27:27;;;;;;;17.67;11.82;;;0.70;92.90;;;;;;5035751;28;20033;-68
2021/01/04 09:29:59;;;;;;;19.40;12.95;;;0.70;92.70;;;;;;5035752;28;20018;-68
2021/01/04 09:32:37;;;;;;;17.83;11.90;;;0.50;93.50;;;;;;5035767;28;20457;-69
2021/01/04 09:35:07;;;;;;;22.60;13.20;;;0.50;94.20;;;;;;5033997;28;20036;-69
2021/01/04 09:37:35;;;;;;;20.30;12.70;;;0.60;94.10;;;;;;5035946;28;20024;-68
2021/01/04 09:40:14;;;;;;;21.92;13.73;;;0.50;94.40;;;;;;5034337;28;20030;-69
2021/01/04 09:42:43;;;;;;;25.52;13.82;;;0.50;94.60;;;;;;5035661;28;20466;-68
2021/01/04 09:45:14;;;;;;;17.88;11.55;;;0.60;93.40;;;;;;5034633;28;20033;-67
2021/01/04 09:47:53;;;;;;;21.33;13.57;;;0.60;93.40;;;;;;5036187;28;20022;-69
2021/01/04 09:50:55;;;;;;;37.17;14.52;;;0.60;94.30;;;;;;5015978;28;20037;-68
2021/01/04 09:53:29;;;;;;;22.50;13.68;;;0.60;94.50;;;;;;5022362;28;20060;-68
2021/01/04 09:56:12;;;;;;;30.02;19.83;;;0.70;94.50;;;;;;5033816;28;20100;-69
2021/01/04 09:58:39;;;;;;;23.25;14.10;;;0.70;93.80;;;;;;5035570;28;20028;-69
2021/01/04 10:01:09;;;;;;;29.05;16.48;;;0.70;93.70;;;;;;5035387;28;20055;-69
2021/01/04 10:03:37;;;;;;;23.58;14.43;;;0.80;94.00;;;;;;5035330;28;20028;-69
2021/01/04 10:06:07;;;;;;;22.77;14.63;;;0.80;93.80;;;;;;5034836;28;20083;-69
2021/01/04 10:08:33;;;;;;;24.83;13.05;;;0.80;93.60;;;;;;5034017;28;20029;-69
2021/01/04 10:11:06;;;;;;;20.67;12.90;;;0.80;93.60;;;;;;5033982;28;20033;-68
2021/01/04 10:13:40;;;;;;;25.90;13.85;;;0.80;93.60;;;;;;5034667;28;20022;-69
2021/01/04 10:16:11;;;;;;;23.33;12.82;;;1.00;92.80;;;;;;5033097;28;20092;-68
2021/01/04 10:19:01;;;;;;;24.80;14.05;;;1.00;93.20;;;;;;5038529;28;20021;-68
2021/01/04 10:21:31;;;;;;;28.15;15.55;;;1.00;93.00;;;;;;5041951;28;20412;-69
2021/01/04 10:24:03;;;;;;;22.58;13.63;;;0.90;92.90;;;;;;5037842;28;20025;-68
2021/01/04 10:26:36;;;;;;;25.60;15.30;;;0.80;92.60;;;;;;5039726;28;20029;-69
2021/01/04 10:29:05;;;;;;;24.27;12.40;;;0.80;93.40;;;;;;5039975;28;20392;-69
2021/01/04 10:31:33;;;;;;;26.75;14.73;;;0.90;93.20;;;;;;5041710;28;20036;-69
2021/01/04 10:34:15;;;;;;;22.20;13.13;;;1.00;93.30;;;;;;5040304;28;20025;-69
2021/01/04 10:36:58;;;;;;;19.65;13.02;;;0.90;92.60;;;;;;5040195;28;20083;-69
2021/01/04 10:39:35;;;;;;;25.95;14.27;;;0.80;92.10;;;;;;5041606;28;20033;-67
2021/01/04 10:42:19;;;;;;;22.05;13.52;;;0.70;93.10;;;;;;5040594;28;20434;-67
2021/01/04 10:44:45;;;;;;;23.40;11.82;;;0.60;93.40;;;;;;5040859;28;20033;-67
2021/01/04 10:47:22;;;;;;;21.20;13.48;;;0.60;93.70;;;;;;5041611;28;20091;-68
2021/01/04 10:49:48;;;;;;;19.88;13.25;;;0.70;93.10;;;;;;5041234;28;20037;-68
2021/01/04 10:52:21;;;;;;;21.95;13.95;;;0.70;93.90;;;;;;5041498;28;20480;-69
2021/01/04 10:54:49;;;;;;;26.75;14.52;;;0.70;93.70;;;;;;5040435;28;20047;-68
2021/01/04 10:57:41;;;;;;;18.38;12.15;;;0.70;94.30;;;;;;5020926;28;20101;-69
2021/01/04 11:00:34;;;;;;;19.63;12.93;;;0.80;93.80;;;;;;5037717;28;20452;-68
2021/01/04 11:03:14;;;;;;;18.70;12.35;;;0.70;94.20;;;;;;5040645;28;20418;-69
2021/01/04 11:05:44;;;;;;;18.38;12.30;;;0.60;93.60;;;;;;5039224;28;20025;-69
2021/01/04 11:08:18;;;;;;;19.83;13.18;;;0.60;94.10;;;;;;5041026;28;20026;-67
2021/01/04 11:10:56;;;;;;;20.23;12.38;;;0.70;93.50;;;;;;5038880;28;20025;-67
2021/01/04 11:13:35;;;;;;;20.50;13.05;;;0.80;93.60;;;;;;5040635;28;20052;-69
2021/01/04 11:16:12;;;;;;;18.30;12.10;;;0.50;93.60;;;;;;5039654;28;20422;-69
2021/01/04 11:18:52;;;;;;;19.85;13.00;;;0.50;93.70;;;;;;5040097;28;20422;-67
2021/01/04 11:21:20;;;;;;;22.13;15.35;;;0.40;94.30;;;;;;5045255;28;20371;-67
2021/01/04 11:23:47;;;;;;;24.02;13.85;;;0.40;94.10;;;;;;5041972;28;20556;-68
2021/01/04 11:26:13;;;;;;;45.65;29.83;;;0.30;94.50;;;;;;5038537;28;20063;-68
2021/01/04 11:28:38;;;;;;;27.42;17.77;;;0.30;95.20;;;;;;5039870;28;20434;-68
2021/01/04 11:31:07;;;;;;;32.13;21.20;;;0.50;94.30;;;;;;5037390;28;20034;-67
2021/01/04 11:33:33;;;;;;;30.77;21.48;;;0.40;94.20;;;;;;5039056;28;20068;-68
2021/01/04 11:35:59;;;;;;;25.80;16.05;;;0.50;94.70;;;;;;5035733;28;20761;-69
2021/01/04 11:38:27;;;;;;;21.15;14.45;;;0.50;95.10;;;;;;5037498;28;20029;-68
2021/01/04 11:40:53;;;;;;;23.73;15.13;;;0.50;94.70;;;;;;5035910;28;20410;-68
2021/01/04 11:43:18;;;;;;;22.90;15.20;;;0.50;94.70;;;;;;5040319;28;20083;-67
2021/01/04 11:45:47;;;;;;;24.27;16.50;;;0.40;94.50;;;;;;5036805;28;20325;-67
2021/01/04 11:48:12;;;;;;;23.98;15.13;;;0.40;95.30;;;;;;5037542;28;20083;-67
2021/01/04 11:50:38;;;;;;;25.83;17.25;;;0.40;95.30;;;;;;5039998;28;20044;-68
2021/01/04 11:53:04;;;;;;;29.25;18.45;;;0.40;95.20;;;;;;5038692;28;20105;-71
2021/01/04 11:55:32;;;;;;;32.28;18.95;;;0.30;95.10;;;;;;5034396;28;20052;-69
2021/01/04 11:57:58;;;;;;;31.27;19.80;;;0.30;95.60;;;;;;5037488;28;20049;-69
2021/01/04 12:00:24;;;;;;;27.48;17.85;;;0.40;95.90;;;;;;5036941;28;20068;-69
2021/01/04 12:02:50;;;;;;;31.88;18.75;;;0.50;95.90;;;;;;5041511;28;20032;-68
2021/01/04 12:05:17;;;;;;;33.05;18.42;;;0.50;95.60;;;;;;5031090;28;20099;-68
2021/01/04 12:07:46;;;;;;;28.75;17.90;;;0.60;95.50;;;;;;5038065;28;20029;-68
2021/01/04 12:10:15;;;;;;;28.35;18.38;;;0.70;95.30;;;;;;5035362;28;20021;-69
2021/01/04 12:12:41;;;;;;;34.08;20.17;;;0.70;94.50;;;;;;5032212;28;20116;-68
2021/01/04 12:15:08;;;;;;;31.33;19.55;;;0.70;95.00;;;;;;5026262;28;20149;-68
2021/01/04 12:17:37;;;;;;;33.50;19.35;;;0.80;94.80;;;;;;5028180;28;20021;-68
2021/01/04 12:20:05;;;;;;;30.50;19.35;;;0.80;94.20;;;;;;5036765;28;20030;-69
2021/01/04 12:22:31;;;;;;;30.50;19.38;;;0.80;94.60;;;;;;5037079;28;20453;-69
2021/01/04 12:24:56;;;;;;;40.15;23.70;;;0.90;94.70;;;;;;5033143;28;20029;-69
2021/01/04 12:27:22;;;;;;;39.97;24.80;;;0.80;94.70;;;;;;5036791;28;20040;-68
2021/01/04 12:29:49;;;;;;;55.65;27.13;;;0.70;95.30;;;;;;5036937;28;20044;-69
2021/01/04 12:32:18;;;;;;;40.65;24.63;;;0.60;95.90;;;;;;5035612;28;20017;-69
2021/01/04 12:34:46;;;;;;;39.05;24.38;;;0.40;96.60;;;;;;5036376;28;20026;-69
2021/01/04 12:37:15;;;;;;;43.70;25.80;;;0.10;96.80;;;;;;5036890;28;20029;-69
2021/01/04 12:39:41;;;;;;;42.58;24.13;;;0.00;97.50;;;;;;5036913;28;20685;-69
2021/01/04 12:42:07;;;;;;;56.80;32.55;;;0.00;97.90;;;;;;5034003;28;20037;-68
2021/01/04 12:44:35;;;;;;;80.55;44.08;;;0.10;97.80;;;;;;5035022;28;20040;-69
2021/01/04 12:47:01;;;;;;;42.25;24.98;;;0.20;97.80;;;;;;5036500;28;20025;-69
2021/01/04 12:49:27;;;;;;;45.20;24.52;;;0.20;97.60;;;;;;5036834;28;20029;-67
2021/01/04 12:51:59;;;;;;;41.42;23.83;;;0.30;97.60;;;;;;5036209;28;20418;-68
2021/01/04 12:54:29;;;;;;;38.13;23.00;;;0.30;97.50;;;;;;5036028;28;20028;-69
2021/01/04 12:56:59;;;;;;;40.67;24.40;;;0.30;97.40;;;;;;5035073;28;20025;-68
2021/01/04 12:59:27;;;;;;;45.75;24.15;;;0.30;97.60;;;;;;5036364;28;20221;-68
2021/01/04 13:01:54;;;;;;;47.08;24.50;;;0.30;97.40;;;;;;5034733;28;20026;-69
2021/01/04 13:04:21;;;;;;;42.10;24.45;;;0.30;97.60;;;;;;5036119;28;20026;-67
2021/01/04 13:06:48;;;;;;;41.50;25.10;;;0.20;97.60;;;;;;5035895;28;20029;-70
2021/01/04 13:09:14;;;;;;;46.90;24.48;;;0.30;97.60;;;;;;5036271;28;20041;-68
2021/01/04 13:11:43;;;;;;;41.13;24.52;;;0.30;97.10;;;;;;5033142;28;20102;-69
2021/01/04 13:14:09;;;;;;;42.13;23.58;;;0.30;97.40;;;;;;5035906;28;20109;-70
2021/01/04 13:16:36;;;;;;;44.65;25.65;;;0.20;97.40;;;;;;5036334;28;20408;-68
2021/01/04 13:19:02;;;;;;;43.28;23.65;;;0.20;97.70;;;;;;5035781;28;20345;-69
2021/01/04 13:21:36;;;;;;;46.35;24.48;;;0.20;97.80;;;;;;5034512;28;20437;-69